D/T METAR WX W/DIR W/SPE G/SPE TEMP DEWP
19/03/19 03:50 EGAC 190350Z AUTO 19006KT 9999 OVC028/// 08/07 Q1022 S (190°) 6.9mph 8°C 7°C
19/03/19 03:20 EGAC 190320Z AUTO 20007KT 9999 OVC030/// 08/07 Q1022 SSW (200°) 8.1mph 8°C 7°C
19/03/19 02:50 EGAC 190250Z AUTO 20006KT 9999 SCT013/// BKN030/// 08/07 Q1022 SSW (200°) 6.9mph 8°C 7°C
19/03/19 02:20 EGAC 190220Z AUTO 23005KT 9999 BKN012/// OVC038/// 09/07 Q1022 SW (230°) 5.8mph 9°C 7°C
19/03/19 01:50 EGAC 190150Z AUTO 25005KT 190V280 9999 BKN012/// BKN021/// OVC035/// 09/08 Q1022 WSW (250°) 5.8mph 9°C 8°C
19/03/19 01:20 EGAC 190120Z AUTO 22005KT 9999 BKN010/// OVC026/// 08/08 Q1022 SW (220°) 5.8mph 8°C 8°C
19/03/19 00:50 EGAC 190050Z AUTO 21006KT 8000 SCT006/// BKN010/// OVC028/// 08/08 Q1022 SSW (210°) 6.9mph 8°C 8°C
18/03/19 23:50 EGAC 182350Z AUTO 21004KT 9999 BKN010/// 08/08 Q1022 SSW (210°) 4.6mph 8°C 8°C
18/03/19 23:20 EGAC 182320Z AUTO 22006KT 9999 FEW024/// SCT034/// 08/08 Q1022 SW (220°) 6.9mph 8°C 8°C
18/03/19 22:50 EGAC 182250Z AUTO 23006KT 9999 FEW027/// OVC032/// 09/08 Q1022 SW (230°) 6.9mph 9°C 8°C
18/03/19 22:20 EGAC 182220Z AUTO 21007KT 9999 BKN027/// OVC039/// 09/08 Q1022 SSW (210°) 8.1mph 9°C 8°C
18/03/19 21:50 EGAC 182150Z AUTO 22006KT 9999 SCT023/// OVC029/// 09/08 Q1022 SW (220°) 6.9mph 9°C 8°C
18/03/19 21:20 EGAC 182120Z AUTO 24006KT 9999 -RA SCT027/// BKN032/// 09/08 Q1022 -RA WSW (240°) 6.9mph 9°C 8°C
18/03/19 20:50 EGAC 182050Z AUTO 24005KT 9999 -RA FEW038/// SCT047/// 09/07 Q1021 -RA WSW (240°) 5.8mph 9°C 7°C
18/03/19 20:20 EGAC 182020Z AUTO 24005KT 9999 NCD 09/07 Q1021 WSW (240°) 5.8mph 9°C 7°C
18/03/19 19:50 EGAC 181950Z AUTO 27004KT 9999 NCD 09/07 Q1021 W (270°) 4.6mph 9°C 7°C
18/03/19 19:20 EGAC 181920Z AUTO 27004KT 9999 NCD 09/07 Q1021 W (270°) 4.6mph 9°C 7°C
18/03/19 18:50 EGAC 181850Z AUTO 26004KT 9999 SCT039/// 10/08 Q1020 W (260°) 4.6mph 10°C 8°C
18/03/19 18:20 EGAC 181820Z AUTO 26005KT 9999 FEW031/// SCT039/// BKN049/// 10/08 Q1020 W (260°) 5.8mph 10°C 8°C
18/03/19 17:50 EGAC 181750Z AUTO 26004KT 9999 -RA SCT037/// 10/08 Q1020 -RA W (260°) 4.6mph 10°C 8°C
18/03/19 17:20 EGAC 181720Z AUTO 28006KT 9999 FEW022/// SCT026/// 11/08 Q1019 W (280°) 6.9mph 11°C 8°C
18/03/19 16:50 EGAC 181650Z AUTO 28007KT 240V300 9999 SCT024/// 11/08 Q1019 W (280°) 8.1mph 11°C 8°C
18/03/19 16:20 EGAC 181620Z AUTO 30006KT 9999 NCD 11/07 Q1018 WNW (300°) 6.9mph 11°C 7°C
18/03/19 15:50 EGAC 181550Z AUTO 30006KT 260V350 9999 SCT023/// SCT035/// BKN045/// 11/08 Q1018 WNW (300°) 6.9mph 11°C 8°C
18/03/19 15:20 EGAC 181520Z AUTO 31005KT 270V360 9999 NCD 11/08 Q1018 NW (310°) 5.8mph 11°C 8°C
18/03/19 14:50 EGAC 181450Z AUTO 32007KT 270V350 9999 BKN041/// 10/07 Q1018 NW (320°) 8.1mph 10°C 7°C
18/03/19 13:50 EGAC 181350Z AUTO 26007KT 230V300 9999 -RA FEW018/// BKN031/// OVC037/// 10/08 Q1017 -RA W (260°) 8.1mph 10°C 8°C
18/03/19 13:20 EGAC 181320Z AUTO 26010KT 9999 FEW015/// SCT022/// BKN037/// 10/08 Q1017 W (260°) 11.5mph 10°C 8°C
18/03/19 12:50 EGAC 181250Z AUTO 23008KT 200V260 9999 BKN009/// OVC014/// 09/08 Q1017 SW (230°) 9.2mph 9°C 8°C
18/03/19 12:20 EGAC 181220Z AUTO 22009KT 9999 -RA BKN013/// BKN021/// BKN033/// 08/07 Q1017 -RA SW (220°) 10.4mph 8°C 7°C
18/03/19 11:20 EGAC 181120Z AUTO 21008KT 9999 -RA BKN012/// OVC048/// 08/07 Q1017 -RA SSW (210°) 9.2mph 8°C 7°C
18/03/19 10:50 EGAC 181050Z AUTO 20010KT 9999 -RA BKN012/// OVC041/// 07/06 Q1017 -RA SSW (200°) 11.5mph 7°C 6°C
18/03/19 09:50 EGAC 180950Z AUTO 22010KT 9999 BKN012/// 07/05 Q1016 SW (220°) 11.5mph 7°C 5°C
18/03/19 09:20 EGAC 180920Z AUTO 22010KT 9999 -RA BKN012/// 06/05 Q1016 -RA SW (220°) 11.5mph 6°C 5°C
18/03/19 08:50 EGAC 180850Z AUTO 21009KT 9999 -RA BKN013/// OVC031/// 05/05 Q1016 -RA SSW (210°) 10.4mph 5°C 5°C
18/03/19 08:20 EGAC 180820Z AUTO 22009KT 8000 -RA SCT018/// BKN035/// BKN045/// 05/04 Q1016 -RA SW (220°) 10.4mph 5°C 4°C
18/03/19 07:50 EGAC 180750Z AUTO 22010KT 7000 -RA FEW032/// OVC043/// 05/04 Q1016 -RA SW (220°) 11.5mph 5°C 4°C
18/03/19 07:20 EGAC 180720Z AUTO 22010KT 9999 -RA NCD 05/04 Q1016 -RA SW (220°) 11.5mph 5°C 4°C
18/03/19 06:50 EGAC 180650Z AUTO 22009KT 9999 -RA FEW015/// SCT039/// 05/04 Q1016 -RA SW (220°) 10.4mph 5°C 4°C
18/03/19 06:20 EGAC 180620Z AUTO 22010KT 9999 -RA SCT036/// SCT046/// 05/04 Q1016 -RA SW (220°) 11.5mph 5°C 4°C
18/03/19 05:50 EGAC 180550Z AUTO 23009KT 9999 -RA SCT037/// 05/04 Q1016 -RA SW (230°) 10.4mph 5°C 4°C
18/03/19 05:20 EGAC 180520Z AUTO 23008KT 9999 -RA FEW038/// 05/04 Q1016 -RA SW (230°) 9.2mph 5°C 4°C
18/03/19 04:50 EGAC 180450Z AUTO 22008KT 9999 -RA FEW041/// 05/03 Q1016 -RA SW (220°) 9.2mph 5°C 3°C
18/03/19 04:20 EGAC 180420Z AUTO 23007KT 9999 -RA SCT040/// SCT047/// 05/03 Q1016 -RA SW (230°) 8.1mph 5°C 3°C
18/03/19 03:50 EGAC 180350Z AUTO 23009KT 9999 -RA NCD 05/03 Q1016 -RA SW (230°) 10.4mph 5°C 3°C
18/03/19 03:20 EGAC 180320Z AUTO 23009KT 9999 -RA NCD 05/03 Q1016 -RA SW (230°) 10.4mph 5°C 3°C
18/03/19 02:50 EGAC 180250Z AUTO 22006KT 180V300 9999 -RA FEW019/// 05/03 Q1016 -RA SW (220°) 6.9mph 5°C 3°C
18/03/19 02:20 EGAC 180220Z AUTO 18005KT 150V220 9999 FEW045/// 05/03 Q1016 S (180°) 5.8mph 5°C 3°C
18/03/19 01:50 EGAC 180150Z AUTO 22006KT 200V270 9999 SCT048/// 05/03 Q1016 SW (220°) 6.9mph 5°C 3°C
18/03/19 01:20 EGAC 180120Z AUTO 19005KT 160V230 9999 FEW024/// 05/03 Q1016 S (190°) 5.8mph 5°C 3°C
18/03/19 00:50 EGAC 180050Z AUTO 21005KT 170V260 9999 NCD 06/03 Q1016 SSW (210°) 5.8mph 6°C 3°C
18/03/19 00:20 EGAC 180020Z AUTO 24005KT 210V280 9999 NCD 06/03 Q1016 WSW (240°) 5.8mph 6°C 3°C
17/03/19 23:50 EGAC 172350Z AUTO 22005KT 190V260 9999 NCD 05/03 Q1016 SW (220°) 5.8mph 5°C 3°C
17/03/19 23:20 EGAC 172320Z AUTO 25005KT 210V290 9999 NCD 05/03 Q1015 WSW (250°) 5.8mph 5°C 3°C
17/03/19 22:50 EGAC 172250Z AUTO 26008KT 230V290 9999 FEW044/// 05/03 Q1015 W (260°) 9.2mph 5°C 3°C
17/03/19 22:20 EGAC 172220Z AUTO VRB03KT 9999 FEW027/// SCT031/// 05/02 Q1015 N (0°) 3.5mph 5°C 2°C
17/03/19 21:50 EGAC 172150Z AUTO 27006KT 240V300 9999 FEW046/// 05/03 Q1015 W (270°) 6.9mph 5°C 3°C
17/03/19 21:20 EGAC 172120Z AUTO 27007KT 9999 FEW036/// 05/03 Q1015 W (270°) 8.1mph 5°C 3°C
17/03/19 20:50 EGAC 172050Z AUTO 30008KT 9999 FEW027/// SCT037/// 06/03 Q1014 WNW (300°) 9.2mph 6°C 3°C
17/03/19 20:20 EGAC 172020Z AUTO 32006KT 290V010 9999 -RA FEW021/// 06/03 Q1014 -RA NW (320°) 6.9mph 6°C 3°C
17/03/19 19:50 EGAC 171950Z AUTO 32005KT 270V020 9999 NCD 07/03 Q1013 NW (320°) 5.8mph 7°C 3°C
17/03/19 19:20 EGAC 171920Z AUTO 31008G18KT 9999 NCD 07/03 Q1013 NW (310°) 9.2mph 20.7mph 7°C 3°C
17/03/19 18:50 EGAC 171850Z AUTO 30012KT 9999 NCD 07/03 Q1012 WNW (300°) 13.8mph 7°C 3°C
17/03/19 18:20 EGAC 171820Z AUTO 30012KT 280V340 9999 NCD 07/03 Q1011 WNW (300°) 13.8mph 7°C 3°C
17/03/19 17:50 EGAC 171750Z AUTO 31015G25KT 9999 NCD 08/03 Q1011 NW (310°) 17.3mph 28.8mph 8°C 3°C
17/03/19 17:20 EGAC 171720Z AUTO 32015KT 9999 NCD 08/03 Q1010 NW (320°) 17.3mph 8°C 3°C
17/03/19 16:50 EGAC 171650Z AUTO 32016KT 9999 NCD 08/03 Q1009 NW (320°) 18.4mph 8°C 3°C
17/03/19 16:20 EGAC 171620Z AUTO 32016G29KT 9999 FEW024/// SCT040/// 08/04 Q1008 RERA NW (320°) 18.4mph 33.4mph 8°C 4°C
17/03/19 15:50 EGAC 171550Z AUTO 32015KT 290V010 9999 SCT034/// 09/03 Q1008 NW (320°) 17.3mph 9°C 3°C
17/03/19 15:20 EGAC 171520Z AUTO 32016G26KT 300V360 9999 FEW035/// SCT041/// 10/03 Q1007 NW (320°) 18.4mph 29.9mph 10°C 3°C
17/03/19 14:50 EGAC 171450Z AUTO 31017KT 9999 SCT034/// BKN045/// 09/02 Q1006 NW (310°) 19.6mph 9°C 2°C
17/03/19 14:20 EGAC 171420Z AUTO 34015G27KT 290V360 9999 SCT034/// BKN041/// 10/04 Q1006 NNW (340°) 17.3mph 31.1mph 10°C 4°C
17/03/19 13:50 EGAC 171350Z AUTO 33014KT 9999 FEW026/// BKN032/// BKN047/// 09/04 Q1005 NNW (330°) 16.1mph 9°C 4°C
17/03/19 13:20 EGAC 171320Z 32014KT 9999 VCSH FEW020TCU FEW033CB 09/04 Q1004 VCSH NW (320°) 16.1mph 9°C 4°C
17/03/19 12:50 EGAC 171250Z 31015G25KT 9999 -SHRA FEW020 FEW035CB 09/04 Q1004 -SHRA NW (310°) 17.3mph 28.8mph 9°C 4°C
17/03/19 12:20 EGAC 171220Z AUTO 32014KT 9999 SCT031/// 09/04 Q1003 NW (320°) 16.1mph 9°C 4°C
17/03/19 11:50 EGAC 171150Z AUTO 30012G23KT 270V330 9999 FEW022/// 08/04 Q1002 WNW (300°) 13.8mph 26.5mph 8°C 4°C
17/03/19 11:20 EGAC 171120Z AUTO 29008KT 250V330 9999 SCT019/// SCT029/// 06/03 Q1002 WNW (290°) 9.2mph 6°C 3°C
17/03/19 10:50 EGAC 171050Z 25011KT 220V290 9999 FEW011 SCT013 BKN018 05/03 Q1001 WSW (250°) 12.7mph 5°C 3°C
17/03/19 10:20 EGAC 171020Z AUTO 22012KT 9999 BKN011/// OVC024/// 04/03 Q1001 SW (220°) 13.8mph 4°C 3°C
17/03/19 09:50 EGAC 170950Z AUTO 21011KT 9999 -RA BKN013/// OVC029/// 03/02 Q1001 -RA SSW (210°) 12.7mph 3°C 2°C
17/03/19 09:20 EGAC 170920Z AUTO 21011KT 9999 -RA BKN015/// 04/02 Q1000 -RA SSW (210°) 12.7mph 4°C 2°C
17/03/19 08:50 EGAC 170850Z AUTO 24011KT 9999 FEW036/// SCT049/// 03/01 Q1000 WSW (240°) 12.7mph 3°C 1°C
17/03/19 08:20 EGAC 170820Z AUTO 24009KT 220V280 9999 FEW049/// 03/01 Q1000 WSW (240°) 10.4mph 3°C 1°C
17/03/19 07:50 EGAC 170750Z AUTO 25012KT 9999 NCD 03/01 Q0999 WSW (250°) 13.8mph 3°C 1°C
17/03/19 07:20 EGAC 170720Z AUTO 25013KT 9999 FEW016/// 03/01 Q0999 WSW (250°) 15.0mph 3°C 1°C
17/03/19 06:50 EGAC 170650Z AUTO 24010KT 9999 NCD 02/00 Q0999 WSW (240°) 11.5mph 2°C 0°C
17/03/19 06:20 EGAC 170620Z AUTO 24009KT 9999 NCD 02/01 Q0999 WSW (240°) 10.4mph 2°C 1°C
17/03/19 05:50 EGAC 170550Z AUTO 26011KT 9999 FEW021/// 02/00 Q0998 W (260°) 12.7mph 2°C 0°C
17/03/19 05:20 EGAC 170520Z AUTO 24010KT 9999 FEW014/// SCT044/// 02/00 Q0998 WSW (240°) 11.5mph 2°C 0°C
17/03/19 04:50 EGAC 170450Z AUTO 24010KT 9999 NCD 02/00 Q0998 WSW (240°) 11.5mph 2°C 0°C
17/03/19 04:20 EGAC 170420Z AUTO 25012KT 9999 NCD 02/00 Q0997 WSW (250°) 13.8mph 2°C 0°C
17/03/19 03:50 EGAC 170350Z AUTO 25011KT 220V280 9999 NCD 02/00 Q0997 WSW (250°) 12.7mph 2°C 0°C
17/03/19 03:20 EGAC 170320Z AUTO 24007KT 210V270 9999 NCD 02/00 Q0997 WSW (240°) 8.1mph 2°C 0°C
17/03/19 02:50 EGAC 170250Z AUTO 25010KT 210V290 9999 NCD 02/00 Q0996 WSW (250°) 11.5mph 2°C 0°C
17/03/19 02:20 EGAC 170220Z AUTO 24011KT 9999 NCD 02/01 Q0996 WSW (240°) 12.7mph 2°C 1°C
17/03/19 01:50 EGAC 170150Z AUTO 23006KT 9999 FEW014/// SCT048/// 02/01 Q0996 SW (230°) 6.9mph 2°C 1°C
17/03/19 01:20 EGAC 170120Z AUTO 28005KT 220V330 9999 -RA SCT014/// BKN023/// 03/01 Q0996 -RA W (280°) 5.8mph 3°C 1°C
17/03/19 00:50 EGAC 170050Z AUTO 26009KT 5000 -RADZ FEW013/// SCT021/// BKN027/// 03/01 Q0996 -RA -DZ W (260°) 10.4mph 3°C 1°C
17/03/19 00:20 EGAC 170020Z AUTO 25009KT 9999 NCD 03/01 Q0995 WSW (250°) 10.4mph 3°C 1°C
16/03/19 23:50 EGAC 162350Z AUTO 26008KT 220V300 7000 -RA FEW017/// SCT027/// 03/01 Q0995 -RA W (260°) 9.2mph 3°C 1°C
16/03/19 23:20 EGAC 162320Z AUTO 24009KT 9999 FEW038/// 03/01 Q0994 RERA WSW (240°) 10.4mph 3°C 1°C
16/03/19 22:50 EGAC 162250Z AUTO 27013G24KT 4900 RA BKN013/// BKN025/// 03/02 Q0995 RA W (270°) 15.0mph 27.6mph 3°C 2°C
16/03/19 22:20 EGAC 162220Z AUTO 27008KT 230V300 9999 -RA FEW018/// SCT027/// BKN045/// 03/02 Q0994 -RA W (270°) 9.2mph 3°C 2°C
16/03/19 21:50 EGAC 162150Z AUTO 25007KT 220V310 9999 FEW033/// 03/01 Q0994 WSW (250°) 8.1mph 3°C 1°C
16/03/19 21:20 EGAC 162120Z AUTO 27009KT 220V310 9999 -RA SCT022/// 03/01 Q0994 -RA W (270°) 10.4mph 3°C 1°C
16/03/19 20:50 EGAC 162050Z AUTO 27012KT 9999 -RA SCT027/// SCT046/// 03/02 Q0993 -RA W (270°) 13.8mph 3°C 2°C
16/03/19 20:20 EGAC 162020Z AUTO 26009G19KT 9999 FEW028/// 04/02 Q0993 W (260°) 10.4mph 21.9mph 4°C 2°C
16/03/19 19:50 EGAC 161950Z AUTO 25006KT 220V310 9999 NCD 04/02 Q0992 WSW (250°) 6.9mph 4°C 2°C
16/03/19 19:20 EGAC 161920Z AUTO 26009KT 9999 NCD 04/02 Q0992 W (260°) 10.4mph 4°C 2°C
16/03/19 18:50 EGAC 161850Z AUTO 29010KT 9999 -RA SCT018/// BKN040/// 04/02 Q0991 -RA WNW (290°) 11.5mph 4°C 2°C
16/03/19 18:20 EGAC 161820Z AUTO 28009KT 240V310 9999 SCT030/// 05/02 Q0991 W (280°) 10.4mph 5°C 2°C
16/03/19 17:50 EGAC 161750Z AUTO 29012KT 9999 SCT020/// 05/03 Q0990 WNW (290°) 13.8mph 5°C 3°C
16/03/19 17:20 EGAC 161720Z AUTO 32011KT 9999 -RA SCT021/// BKN026/// 06/03 Q0990 -RA NW (320°) 12.7mph 6°C 3°C
16/03/19 16:50 EGAC 161650Z AUTO 30012KT 260V320 9999 -RA FEW023/// SCT028/// 05/03 Q0989 -RA WNW (300°) 13.8mph 5°C 3°C
16/03/19 16:20 EGAC 161620Z AUTO 30015KT 9999 FEW039/// 06/02 Q0988 WNW (300°) 17.3mph 6°C 2°C
16/03/19 15:50 EGAC 161550Z AUTO 30014KT 260V330 9999 SCT021/// BKN026/// 06/03 Q0988 WNW (300°) 16.1mph 6°C 3°C
16/03/19 15:20 EGAC 161520Z AUTO 30014KT 9999 -RA SCT021/// SCT027/// BKN032/// 06/03 Q0987 -RA WNW (300°) 16.1mph 6°C 3°C
16/03/19 14:50 EGAC 161450Z AUTO 30015KT 260V330 9999 BKN020/// 06/03 Q0987 WNW (300°) 17.3mph 6°C 3°C
16/03/19 14:20 EGAC 161420Z AUTO 30015G25KT 250V330 9999 BKN018/// 06/03 Q0986 WNW (300°) 17.3mph 28.8mph 6°C 3°C
16/03/19 13:50 EGAC 161350Z AUTO 29013KT 250V330 9999 FEW014/// BKN018/// BKN028/// 07/04 Q0985 WNW (290°) 15.0mph 7°C 4°C
16/03/19 13:20 EGAC 161320Z AUTO 27016KT 9999 BKN017/// BKN031/// 07/05 Q0984 W (270°) 18.4mph 7°C 5°C
16/03/19 12:50 EGAC 161250Z AUTO 25018G30KT 9999 FEW018/// BKN035/// BKN042/// 10/07 Q0983 RERA WSW (250°) 20.7mph 34.5mph 10°C 7°C
16/03/19 11:50 EGAC 161150Z AUTO 22022KT 9999 BKN025/// 13/09 Q0982 SW (220°) 25.3mph 13°C 9°C
16/03/19 11:20 EGAC 161120Z AUTO 22021G34KT 9999 SCT024/// SCT033/// 13/09 Q0983 SW (220°) 24.2mph 39.1mph 13°C 9°C
16/03/19 10:50 EGAC 161050Z AUTO 21022KT 9999 BKN019/// OVC027/// 13/10 Q0983 SSW (210°) 25.3mph 13°C 10°C
16/03/19 10:20 EGAC 161020Z AUTO 21019G29KT 9999 SCT015/// SCT019/// BKN023/// 12/10 Q0984 SSW (210°) 21.9mph 33.4mph 12°C 10°C
16/03/19 09:50 EGAC 160950Z 21017KT 9999 -RA FEW011 SCT017 BKN021 11/10 Q0984 -RA SSW (210°) 19.6mph 11°C 10°C
16/03/19 09:20 EGAC 160920Z 21018KT 9999 -RA FEW012 SCT015 BKN020 11/10 Q0985 -RA SSW (210°) 20.7mph 11°C 10°C
16/03/19 08:50 EGAC 160850Z 21016KT 8000 -RA FEW011 SCT014 BKN022 11/10 Q0985 RERA -RA SSW (210°) 18.4mph 11°C 10°C
16/03/19 08:20 EGAC 160820Z 20007KT 8000 RA FEW011 SCT014 BKN022 07/07 Q0986 RA SSW (200°) 8.1mph 7°C 7°C
16/03/19 07:50 EGAC 160750Z 20005KT 6000 RA FEW005 OVC020 05/05 Q0987 RA SSW (200°) 5.8mph 5°C 5°C
16/03/19 06:50 EGAC 160650Z VRB01KT 6000 RA FEW004 BKN010 04/04 Q0988 RA N (0°) 1.2mph 4°C 4°C
16/03/19 06:20 EGAC 160620Z VRB02KT 7000 RA FEW007 BKN012 04/04 Q0989 RERA RA N (0°) 2.3mph 4°C 4°C
16/03/19 05:50 EGAC 160550Z AUTO VRB03KT 3600 RA BKN004/// BKN010/// OVC021/// 04/04 Q0990 RA N (0°) 3.5mph 4°C 4°C
16/03/19 05:20 EGAC 160520Z AUTO VRB04KT 3400 RA BKN006/// OVC026/// 04/03 Q0991 RERA RA N (0°) 4.6mph 4°C 3°C
16/03/19 04:50 EGAC 160450Z AUTO VRB03KT 3400 +RA BKN005/// OVC010/// 03/03 Q0992 +RA N (0°) 3.5mph 3°C 3°C
16/03/19 04:20 EGAC 160420Z AUTO VRB02KT 4200 RA OVC006/// 03/03 Q0994 RA N (0°) 2.3mph 3°C 3°C
16/03/19 03:50 EGAC 160350Z AUTO VRB03KT 5000 -RA BKN007/// OVC012/// 02/02 Q0995 RERA -RA N (0°) 3.5mph 2°C 2°C
16/03/19 03:20 EGAC 160320Z AUTO VRB02KT 5000 -RA BKN007/// OVC029/// 02/02 Q0996 -RA N (0°) 2.3mph 2°C 2°C
16/03/19 02:50 EGAC 160250Z AUTO 12004KT 7000 -RA SCT020/// OVC031/// 02/02 Q0997 -RA ESE (120°) 4.6mph 2°C 2°C
16/03/19 02:20 EGAC 160220Z AUTO 15005KT 6000 -RA SCT019/// OVC032/// 02/02 Q0998 -RA SSE (150°) 5.8mph 2°C 2°C
16/03/19 01:50 EGAC 160150Z AUTO 16007KT 6000 -RA SCT009/// BKN013/// BKN017/// 03/02 Q0999 -RA SSE (160°) 8.1mph 3°C 2°C
16/03/19 01:20 EGAC 160120Z AUTO 16006KT 5000 -RA BKN011/// OVC027/// 03/02 Q1000 -RA SSE (160°) 6.9mph 3°C 2°C